DAOO/ORN METAR and TAF weather

Enter ICAO airport designator
Station Type Date Time Source
DAOO METAR 2020/01/18 04:30 UTC NOAA

DAOO 180430Z 04002KT CAVOK 05/02 Q1031


Station Type Date Time Source
DAOO Decoded METAR 2020/01/18 04:30 UTC NOAA

Oran / Es Senia, Algeria (DAOO) 35-38N 000-36W 90M
Jan 17, 2020 - 11:30 PM EST / 2020.01.18 0430 UTC
Wind: from the NE (040 degrees) at 2 MPH (2 KT):0
Visibility: greater than 7 mile(s):0
Temperature: 41 F (5 C)
Dew Point: 35 F (2 C)
Relative Humidity: 80%
Pressure (altimeter): 30.45 in. Hg (1031 hPa)
ob: DAOO 180430Z 04002KT CAVOK 05/02 Q1031
cycle: 4

Station Type Date Time Source
DAOO TAF 2020/01/17 18:40 UTC NOAA

TAF DAOO 171700Z 1718/1818 24006KT CAVOK

Example: see airport list